sensor_id;sensor_type;location;lat;lon;timestamp;pressure;altitude;pressure_sealevel;temperature;humidity
45864;BME280;31579;52.354;16.974;2023-02-11T00:00:13;-4.4;;;-146.1;100.0
45864;BME280;31579;52.354;16.974;2023-02-11T00:01:20;-16.8;;;-146.1;100.0
45864;BME280;31579;52.354;16.974;2023-02-11T00:02:19;-0.7;;;-146.1;100.0
45864;BME280;31579;52.354;16.974;2023-02-11T00:03:22;-10.2;;;-146.1;100.0
45864;BME280;31579;52.354;16.974;2023-02-11T00:04:25;-15.0;;;-146.1;100.0
45864;BME280;31579;52.354;16.974;2023-02-11T00:05:28;-17.4;;;-146.1;100.0
45864;BME280;31579;52.354;16.974;2023-02-11T00:06:32;-17.9;;;-146.1;100.0
45864;BME280;31579;52.354;16.974;2023-02-11T00:07:34;-18.7;;;-146.1;100.0
45864;BME280;31579;52.354;16.974;2023-02-11T00:08:37;-18.1;;;-146.1;100.0
45864;BME280;31579;52.354;16.974;2023-02-11T00:09:41;-29.4;;;-146.1;100.0
45864;BME280;31579;52.354;16.974;2023-02-11T00:10:44;-11.8;;;-146.1;100.0
45864;BME280;31579;52.354;16.974;2023-02-11T00:11:47;-19.2;;;-146.1;100.0
45864;BME280;31579;52.354;16.974;2023-02-11T00:12:51;-31.8;;;-146.1;100.0
45864;BME280;31579;52.354;16.974;2023-02-11T00:13:57;-23.9;;;-146.1;100.0
45864;BME280;31579;52.354;16.974;2023-02-11T00:14:58;-15.0;;;-146.1;100.0
45864;BME280;31579;52.354;16.974;2023-02-11T00:16:04;-20.4;;;-146.1;100.0
45864;BME280;31579;52.354;16.974;2023-02-11T00:17:05;-52.1;;;-146.1;100.0
45864;BME280;31579;52.354;16.974;2023-02-11T00:18:07;-29.8;;;-146.1;100.0
45864;BME280;31579;52.354;16.974;2023-02-11T00:19:10;-34.5;;;-146.1;100.0
45864;BME280;31579;52.354;16.974;2023-02-11T00:20:14;-46.6;;;-146.1;100.0
45864;BME280;31579;52.354;16.974;2023-02-11T00:21:20;-37.9;;;-146.1;100.0
45864;BME280;31579;52.354;16.974;2023-02-11T00:22:21;-28.7;;;-146.1;100.0
45864;BME280;31579;52.354;16.974;2023-02-11T00:23:24;-41.8;;;-146.1;100.0
45864;BME280;31579;52.354;16.974;2023-02-11T00:24:27;-48.0;;;-146.1;100.0
45864;BME280;31579;52.354;16.974;2023-02-11T00:25:38;-45.5;;;-146.1;100.0
45864;BME280;31579;52.354;16.974;2023-02-11T00:26:40;-20.6;;;-146.1;100.0
45864;BME280;31579;52.354;16.974;2023-02-11T00:27:44;-56.9;;;-146.1;100.0
45864;BME280;31579;52.354;16.974;2023-02-11T00:28:48;-55.5;;;-146.1;100.0
45864;BME280;31579;52.354;16.974;2023-02-11T00:29:50;-74.1;;;-146.1;100.0
45864;BME280;31579;52.354;16.974;2023-02-11T00:30:54;-84.9;;;-146.1;100.0
45864;BME280;31579;52.354;16.974;2023-02-11T00:31:56;-91.5;;;-146.1;100.0
45864;BME280;31579;52.354;16.974;2023-02-11T00:32:59;-94.5;;;-146.1;100.0
45864;BME280;31579;52.354;16.974;2023-02-11T00:34:02;-96.3;;;-146.1;100.0
45864;BME280;31579;52.354;16.974;2023-02-11T00:35:05;-95.7;;;-146.1;100.0
45864;BME280;31579;52.354;16.974;2023-02-11T00:37:12;-88.9;;;-146.1;100.0
45864;BME280;31579;52.354;16.974;2023-02-11T00:38:15;-94.3;;;-146.1;100.0
45864;BME280;31579;52.354;16.974;2023-02-11T00:39:18;-96.4;;;-146.1;100.0
45864;BME280;31579;52.354;16.974;2023-02-11T00:40:21;-96.5;;;-146.1;100.0
45864;BME280;31579;52.354;16.974;2023-02-11T00:41:24;-96.2;;;-146.1;100.0
45864;BME280;31579;52.354;16.974;2023-02-11T00:42:27;-95.1;;;-146.1;100.0
45864;BME280;31579;52.354;16.974;2023-02-11T00:43:30;-93.1;;;-146.1;100.0
45864;BME280;31579;52.354;16.974;2023-02-11T00:44:32;-69.6;;;-146.1;100.0
45864;BME280;31579;52.354;16.974;2023-02-11T00:45:49;-78.4;;;-146.1;100.0
45864;BME280;31579;52.354;16.974;2023-02-11T00:46:52;-70.2;;;-146.1;100.0
45864;BME280;31579;52.354;16.974;2023-02-11T00:47:55;-84.1;;;-146.1;100.0
45864;BME280;31579;52.354;16.974;2023-02-11T00:48:59;-99.7;;;-146.1;100.0
45864;BME280;31579;52.354;16.974;2023-02-11T00:50:01;-80.3;;;-146.1;100.0
45864;BME280;31579;52.354;16.974;2023-02-11T00:51:05;-97.8;;;-146.1;100.0
45864;BME280;31579;52.354;16.974;2023-02-11T00:52:08;-94.1;;;-146.1;100.0
45864;BME280;31579;52.354;16.974;2023-02-11T00:53:12;-91.2;;;-146.1;100.0
45864;BME280;31579;52.354;16.974;2023-02-11T00:54:15;-88.5;;;-146.1;100.0
45864;BME280;31579;52.354;16.974;2023-02-11T00:55:18;-85.6;;;-146.1;100.0
45864;BME280;31579;52.354;16.974;2023-02-11T00:56:21;-83.2;;;-146.1;100.0
45864;BME280;31579;52.354;16.974;2023-02-11T00:57:24;-80.7;;;-146.1;100.0
45864;BME280;31579;52.354;16.974;2023-02-11T00:58:27;-77.2;;;-146.1;100.0
45864;BME280;31579;52.354;16.974;2023-02-11T00:59:31;-74.5;;;-146.1;100.0
45864;BME280;31579;52.354;16.974;2023-02-11T01:00:35;-71.3;;;-146.1;100.0
45864;BME280;31579;52.354;16.974;2023-02-11T01:01:37;-68.1;;;-146.1;100.0
45864;BME280;31579;52.354;16.974;2023-02-11T01:02:40;-65.8;;;-146.1;100.0
45864;BME280;31579;52.354;16.974;2023-02-11T01:03:43;-63.6;;;-146.1;100.0
45864;BME280;31579;52.354;16.974;2023-02-11T01:04:47;-76.7;;;-146.1;100.0
45864;BME280;31579;52.354;16.974;2023-02-11T01:05:50;-57.0;;;-146.1;100.0
45864;BME280;31579;52.354;16.974;2023-02-11T01:06:53;-61.1;;;-146.1;100.0
45864;BME280;31579;52.354;16.974;2023-02-11T01:07:56;-61.8;;;-146.1;100.0
45864;BME280;31579;52.354;16.974;2023-02-11T01:08:59;-61.0;;;-146.1;100.0
45864;BME280;31579;52.354;16.974;2023-02-11T01:10:01;-36.5;;;-146.1;100.0
45864;BME280;31579;52.354;16.974;2023-02-11T01:11:09;-71.2;;;-146.1;100.0
45864;BME280;31579;52.354;16.974;2023-02-11T01:12:09;-48.7;;;-146.1;100.0
45864;BME280;31579;52.354;16.974;2023-02-11T01:13:12;-47.9;;;-146.1;100.0
45864;BME280;31579;52.354;16.974;2023-02-11T01:14:15;-46.5;;;-146.1;100.0
45864;BME280;31579;52.354;16.974;2023-02-11T01:15:19;-58.4;;;-146.1;100.0
45864;BME280;31579;52.354;16.974;2023-02-11T01:16:22;-38.9;;;-146.1;100.0
45864;BME280;31579;52.354;16.974;2023-02-11T01:17:25;-42.5;;;-146.1;100.0
45864;BME280;31579;52.354;16.974;2023-02-11T01:18:28;-43.4;;;-146.1;100.0
45864;BME280;31579;52.354;16.974;2023-02-11T01:19:31;-42.2;;;-146.1;100.0
45864;BME280;31579;52.354;16.974;2023-02-11T01:20:34;-41.3;;;-146.1;100.0
45864;BME280;31579;52.354;16.974;2023-02-11T01:21:37;-39.3;;;-146.1;100.0
45864;BME280;31579;52.354;16.974;2023-02-11T01:22:40;-36.5;;;-146.1;100.0
45864;BME280;31579;52.354;16.974;2023-02-11T01:23:43;-33.8;;;-146.1;100.0
45864;BME280;31579;52.354;16.974;2023-02-11T01:24:46;-31.3;;;-146.1;100.0
45864;BME280;31579;52.354;16.974;2023-02-11T01:25:49;-29.0;;;-146.1;100.0
45864;BME280;31579;52.354;16.974;2023-02-11T01:26:52;-27.1;;;-146.1;100.0
45864;BME280;31579;52.354;16.974;2023-02-11T01:27:55;-24.9;;;-146.1;100.0
45864;BME280;31579;52.354;16.974;2023-02-11T01:28:58;-22.2;;;-146.1;100.0
45864;BME280;31579;52.354;16.974;2023-02-11T01:30:02;-32.7;;;-146.1;100.0
45864;BME280;31579;52.354;16.974;2023-02-11T01:31:05;-14.4;;;-146.1;100.0
45864;BME280;31579;52.354;16.974;2023-02-11T01:32:08;-20.0;;;-146.1;100.0
45864;BME280;31579;52.354;16.974;2023-02-11T01:33:11;-22.4;;;-146.1;100.0
45864;BME280;31579;52.354;16.974;2023-02-11T01:34:14;-23.6;;;-146.1;100.0
45864;BME280;31579;52.354;16.974;2023-02-11T01:35:17;-23.6;;;-146.1;100.0
45864;BME280;31579;52.354;16.974;2023-02-11T01:36:20;-23.1;;;-146.1;100.0
45864;BME280;31579;52.354;16.974;2023-02-11T01:37:23;-22.0;;;-146.1;100.0
45864;BME280;31579;52.354;16.974;2023-02-11T01:38:27;-32.1;;;-146.1;100.0
45864;BME280;31579;52.354;16.974;2023-02-11T01:39:32;-21.6;;;-146.1;100.0
45864;BME280;31579;52.354;16.974;2023-02-11T01:40:34;-10.5;;;-146.1;100.0
45864;BME280;31579;52.354;16.974;2023-02-11T01:41:37;-22.5;;;-146.1;100.0
45864;BME280;31579;52.354;16.974;2023-02-11T01:42:40;-28.7;;;-146.1;100.0
45864;BME280;31579;52.354;16.974;2023-02-11T01:43:44;-31.8;;;-146.1;100.0
45864;BME280;31579;52.354;16.974;2023-02-11T01:44:48;-43.6;;;-146.1;100.0
45864;BME280;31579;52.354;16.974;2023-02-11T01:46:53;-34.1;;;-146.1;100.0
45864;BME280;31579;52.354;16.974;2023-02-11T01:47:57;-48.0;;;-146.1;100.0
45864;BME280;31579;52.354;16.974;2023-02-11T01:49:04;-32.2;;;-146.1;100.0
45864;BME280;31579;52.354;16.974;2023-02-11T01:50:03;-40.7;;;-146.1;100.0
45864;BME280;31579;52.354;16.974;2023-02-11T01:51:11;-45.6;;;-146.1;100.0
45864;BME280;31579;52.354;16.974;2023-02-11T01:53:16;-51.1;;;-146.1;100.0
45864;BME280;31579;52.354;16.974;2023-02-11T01:54:20;-40.0;;;-146.1;100.0
45864;BME280;31579;52.354;16.974;2023-02-11T01:55:22;-52.2;;;-146.1;100.0
45864;BME280;31579;52.354;16.974;2023-02-11T01:56:25;-59.1;;;-146.1;100.0
45864;BME280;31579;52.354;16.974;2023-02-11T01:57:28;-62.5;;;-146.1;100.0
45864;BME280;31579;52.354;16.974;2023-02-11T01:58:31;-63.5;;;-146.1;100.0
45864;BME280;31579;52.354;16.974;2023-02-11T01:59:37;-62.9;;;-146.1;100.0
45864;BME280;31579;52.354;16.974;2023-02-11T02:00:38;-62.9;;;-146.1;100.0
45864;BME280;31579;52.354;16.974;2023-02-11T02:01:41;-61.4;;;-146.1;100.0
45864;BME280;31579;52.354;16.974;2023-02-11T02:03:48;-53.7;;;-146.1;100.0
45864;BME280;31579;52.354;16.974;2023-02-11T02:04:52;-58.7;;;-146.1;100.0
45864;BME280;31579;52.354;16.974;2023-02-11T02:05:56;-61.7;;;-146.1;100.0
45864;BME280;31579;52.354;16.974;2023-02-11T02:06:59;-74.9;;;-146.1;100.0
45864;BME280;31579;52.354;16.974;2023-02-11T02:10:08;-61.7;;;-146.1;100.0
45864;BME280;31579;52.354;16.974;2023-02-11T02:11:10;-73.7;;;-146.1;100.0
45864;BME280;31579;52.354;16.974;2023-02-11T02:12:14;-64.2;;;-146.1;100.0
45864;BME280;31579;52.354;16.974;2023-02-11T02:13:18;-59.8;;;-146.1;100.0
45864;BME280;31579;52.354;16.974;2023-02-11T02:14:21;-52.1;;;-146.1;100.0
45864;BME280;31579;52.354;16.974;2023-02-11T02:16:30;-63.4;;;-146.1;100.0
45864;BME280;31579;52.354;16.974;2023-02-11T02:17:36;-83.7;;;-146.1;100.0
45864;BME280;31579;52.354;16.974;2023-02-11T02:20:51;-87.5;;;-146.1;100.0
45864;BME280;31579;52.354;16.974;2023-02-11T02:33:29;-112.0;;;-146.1;100.0
45864;BME280;31579;52.354;16.974;2023-02-11T02:36:48;-110.1;;;-146.1;100.0
45864;BME280;31579;52.354;16.974;2023-02-11T02:39:54;-149.9;;;-146.1;100.0
45864;BME280;31579;52.354;16.974;2023-02-11T02:40:48;-149.6;;;-146.1;100.0
45864;BME280;31579;52.354;16.974;2023-02-11T02:41:47;-150.4;;;-146.1;100.0
45864;BME280;31579;52.354;16.974;2023-02-11T02:42:50;-152.2;;;-146.1;100.0
45864;BME280;31579;52.354;16.974;2023-02-11T02:43:53;-152.6;;;-146.1;100.0
45864;BME280;31579;52.354;16.974;2023-02-11T02:44:56;-152.7;;;-146.1;100.0
45864;BME280;31579;52.354;16.974;2023-02-11T02:47:02;-152.6;;;-146.1;100.0
45864;BME280;31579;52.354;16.974;2023-02-11T02:48:05;-152.6;;;-146.1;100.0
45864;BME280;31579;52.354;16.974;2023-02-11T02:49:12;-152.3;;;-146.1;100.0
45864;BME280;31579;52.354;16.974;2023-02-11T02:50:13;-152.0;;;-146.1;100.0
45864;BME280;31579;52.354;16.974;2023-02-11T02:53:26;-147.5;;;-146.1;100.0
45864;BME280;31579;52.354;16.974;2023-02-11T03:06:29;-147.3;;;-146.1;100.0
45864;BME280;31579;52.354;16.974;2023-02-11T03:10:39;-142.5;;;-146.1;100.0
45864;BME280;31579;52.354;16.974;2023-02-11T03:11:39;-140.4;;;-146.1;100.0
45864;BME280;31579;52.354;16.974;2023-02-11T03:12:42;-138.1;;;-146.1;100.0
45864;BME280;31579;52.354;16.974;2023-02-11T03:13:45;-135.9;;;-146.1;100.0
45864;BME280;31579;52.354;16.974;2023-02-11T03:14:49;-133.7;;;-146.1;100.0
45864;BME280;31579;52.354;16.974;2023-02-11T03:15:52;-131.7;;;-146.1;100.0
45864;BME280;31579;52.354;16.974;2023-02-11T03:16:55;-129.5;;;-146.1;100.0
45864;BME280;31579;52.354;16.974;2023-02-11T03:17:58;-127.6;;;-146.1;100.0
45864;BME280;31579;52.354;16.974;2023-02-11T03:19:02;-134.9;;;-146.1;100.0
45864;BME280;31579;52.354;16.974;2023-02-11T03:20:05;-121.4;;;-146.1;100.0
45864;BME280;31579;52.354;16.974;2023-02-11T03:21:09;-128.8;;;-146.1;100.0
45864;BME280;31579;52.354;16.974;2023-02-11T03:23:18;-125.2;;;-146.1;100.0
45864;BME280;31579;52.354;16.974;2023-02-11T03:24:27;-128.8;;;-146.1;100.0
45864;BME280;31579;52.354;16.974;2023-02-11T03:25:21;-130.7;;;-146.1;100.0
45864;BME280;31579;52.354;16.974;2023-02-11T03:27:31;-130.7;;;-146.1;100.0
45864;BME280;31579;52.354;16.974;2023-02-11T03:30:38;-128.1;;;-146.1;100.0
45864;BME280;31579;52.354;16.974;2023-02-11T03:33:50;-125.0;;;-146.1;100.0
45864;BME280;31579;52.354;16.974;2023-02-11T03:36:58;-127.6;;;-146.1;100.0
45864;BME280;31579;52.354;16.974;2023-02-11T03:37:59;-126.9;;;-146.1;100.0
45864;BME280;31579;52.354;16.974;2023-02-11T03:39:00;-109.6;;;-146.1;100.0
45864;BME280;31579;52.354;16.974;2023-02-11T03:40:05;-92.9;;;-146.1;100.0
45864;BME280;31579;52.354;16.974;2023-02-11T03:41:06;-99.5;;;-146.1;100.0
45864;BME280;31579;52.354;16.974;2023-02-11T03:42:10;-98.5;;;-146.1;100.0
45864;BME280;31579;52.354;16.974;2023-02-11T03:43:15;-97.0;;;-146.1;100.0
45864;BME280;31579;52.354;16.974;2023-02-11T03:44:15;-94.6;;;-146.1;100.0
45864;BME280;31579;52.354;16.974;2023-02-11T03:45:21;-90.3;;;-146.1;100.0
45864;BME280;31579;52.354;16.974;2023-02-11T03:46:27;-88.2;;;-146.1;100.0
45864;BME280;31579;52.354;16.974;2023-02-11T03:47:26;-85.2;;;-146.1;100.0
45864;BME280;31579;52.354;16.974;2023-02-11T03:48:30;-83.1;;;-146.1;100.0
45864;BME280;31579;52.354;16.974;2023-02-11T03:49:31;-81.0;;;-146.1;100.0
45864;BME280;31579;52.354;16.974;2023-02-11T03:50:34;-79.4;;;-146.1;100.0
45864;BME280;31579;52.354;16.974;2023-02-11T03:51:37;-77.5;;;-146.1;100.0
45864;BME280;31579;52.354;16.974;2023-02-11T03:52:40;-75.7;;;-146.1;100.0
45864;BME280;31579;52.354;16.974;2023-02-11T03:53:44;-73.7;;;-146.1;100.0
45864;BME280;31579;52.354;16.974;2023-02-11T03:54:47;-71.9;;;-146.1;100.0
45864;BME280;31579;52.354;16.974;2023-02-11T03:55:50;-69.8;;;-146.1;100.0
45864;BME280;31579;52.354;16.974;2023-02-11T03:56:55;-67.5;;;-146.1;100.0
45864;BME280;31579;52.354;16.974;2023-02-11T03:57:55;-65.3;;;-146.1;100.0
45864;BME280;31579;52.354;16.974;2023-02-11T03:58:58;-63.9;;;-146.1;100.0
45864;BME280;31579;52.354;16.974;2023-02-11T04:00:01;-42.1;;;-146.1;100.0
45864;BME280;31579;52.354;16.974;2023-02-11T04:01:04;-50.7;;;-146.1;100.0
45864;BME280;31579;52.354;16.974;2023-02-11T04:02:07;-50.2;;;-146.1;100.0
45864;BME280;31579;52.354;16.974;2023-02-11T04:03:11;-47.7;;;-146.1;100.0
45864;BME280;31579;52.354;16.974;2023-02-11T04:04:14;-46.1;;;-146.1;100.0
45864;BME280;31579;52.354;16.974;2023-02-11T04:05:16;-44.9;;;-146.1;100.0
45864;BME280;31579;52.354;16.974;2023-02-11T04:06:19;-43.4;;;-146.1;100.0
45864;BME280;31579;52.354;16.974;2023-02-11T04:07:23;-42.5;;;-146.1;100.0
45864;BME280;31579;52.354;16.974;2023-02-11T04:08:26;-56.2;;;-146.1;100.0
45864;BME280;31579;52.354;16.974;2023-02-11T04:09:29;-37.6;;;-146.1;100.0
45864;BME280;31579;52.354;16.974;2023-02-11T04:10:32;-42.6;;;-146.1;100.0
45864;BME280;31579;52.354;16.974;2023-02-11T04:11:35;-44.6;;;-146.1;100.0
45864;BME280;31579;52.354;16.974;2023-02-11T04:12:38;-45.2;;;-146.1;100.0
45864;BME280;31579;52.354;16.974;2023-02-11T04:13:41;-45.0;;;-146.1;100.0
45864;BME280;31579;52.354;16.974;2023-02-11T04:14:44;-44.8;;;-146.1;100.0
45864;BME280;31579;52.354;16.974;2023-02-11T04:15:47;-44.0;;;-146.1;100.0
45864;BME280;31579;52.354;16.974;2023-02-11T04:16:50;-43.8;;;-146.1;100.0
45864;BME280;31579;52.354;16.974;2023-02-11T04:17:53;-43.8;;;-146.1;100.0
45864;BME280;31579;52.354;16.974;2023-02-11T04:18:56;-43.4;;;-146.1;100.0
45864;BME280;31579;52.354;16.974;2023-02-11T04:19:59;-42.4;;;-146.1;100.0
45864;BME280;31579;52.354;16.974;2023-02-11T04:21:02;-42.0;;;-146.1;100.0
45864;BME280;31579;52.354;16.974;2023-02-11T04:22:05;-41.7;;;-146.1;100.0
45864;BME280;31579;52.354;16.974;2023-02-11T04:23:08;-40.8;;;-146.1;100.0
45864;BME280;31579;52.354;16.974;2023-02-11T04:24:12;-40.1;;;-146.1;100.0
45864;BME280;31579;52.354;16.974;2023-02-11T04:25:14;-39.5;;;-146.1;100.0
45864;BME280;31579;52.354;16.974;2023-02-11T04:26:17;-39.2;;;-146.1;100.0
45864;BME280;31579;52.354;16.974;2023-02-11T04:27:21;-38.1;;;-146.1;100.0
45864;BME280;31579;52.354;16.974;2023-02-11T04:28:23;-37.7;;;-146.1;100.0
45864;BME280;31579;52.354;16.974;2023-02-11T04:29:26;-37.1;;;-146.1;100.0
45864;BME280;31579;52.354;16.974;2023-02-11T04:30:29;-35.9;;;-146.1;100.0
45864;BME280;31579;52.354;16.974;2023-02-11T04:31:32;-35.6;;;-146.1;100.0
45864;BME280;31579;52.354;16.974;2023-02-11T04:32:35;-35.1;;;-146.1;100.0
45864;BME280;31579;52.354;16.974;2023-02-11T04:33:38;-34.8;;;-146.1;100.0
45864;BME280;31579;52.354;16.974;2023-02-11T04:34:41;-33.8;;;-146.1;100.0
45864;BME280;31579;52.354;16.974;2023-02-11T04:35:44;-32.4;;;-146.1;100.0
45864;BME280;31579;52.354;16.974;2023-02-11T04:36:47;-31.5;;;-146.1;100.0
45864;BME280;31579;52.354;16.974;2023-02-11T04:37:50;-30.6;;;-146.1;100.0
45864;BME280;31579;52.354;16.974;2023-02-11T04:38:53;-29.9;;;-146.1;100.0
45864;BME280;31579;52.354;16.974;2023-02-11T04:39:57;-46.1;;;-146.1;100.0
45864;BME280;31579;52.354;16.974;2023-02-11T04:41:01;-39.2;;;-146.1;100.0
45864;BME280;31579;52.354;16.974;2023-02-11T04:42:06;-38.0;;;-146.1;100.0
45864;BME280;31579;52.354;16.974;2023-02-11T04:43:08;-31.6;;;-146.1;100.0
45864;BME280;31579;52.354;16.974;2023-02-11T04:44:11;-46.8;;;-146.1;100.0
45864;BME280;31579;52.354;16.974;2023-02-11T04:45:14;-53.8;;;-146.1;100.0
45864;BME280;31579;52.354;16.974;2023-02-11T04:46:17;-57.0;;;-146.1;100.0
45864;BME280;31579;52.354;16.974;2023-02-11T04:47:20;-58.3;;;-146.1;100.0
45864;BME280;31579;52.354;16.974;2023-02-11T04:48:24;-57.8;;;-146.1;100.0
45864;BME280;31579;52.354;16.974;2023-02-11T04:49:27;-73.8;;;-146.1;100.0
45864;BME280;31579;52.354;16.974;2023-02-11T04:50:30;-56.8;;;-146.1;100.0
45864;BME280;31579;52.354;16.974;2023-02-11T04:51:34;-75.5;;;-146.1;100.0
45864;BME280;31579;52.354;16.974;2023-02-11T04:52:45;-66.5;;;-146.1;100.0
45864;BME280;31579;52.354;16.974;2023-02-11T04:53:48;-41.7;;;-146.1;100.0
45864;BME280;31579;52.354;16.974;2023-02-11T04:54:51;-80.6;;;-146.1;100.0
45864;BME280;31579;52.354;16.974;2023-02-11T04:55:54;-82.5;;;-146.1;100.0
45864;BME280;31579;52.354;16.974;2023-02-11T04:56:58;-101.4;;;-146.1;100.0
45864;BME280;31579;52.354;16.974;2023-02-11T04:58:02;-120.1;;;-146.1;100.0
45864;BME280;31579;52.354;16.974;2023-02-11T04:59:05;-111.9;;;-146.1;100.0
45864;BME280;31579;52.354;16.974;2023-02-11T05:00:08;-121.9;;;-146.1;100.0
45864;BME280;31579;52.354;16.974;2023-02-11T05:01:12;-126.2;;;-146.1;100.0
45864;BME280;31579;52.354;16.974;2023-02-11T05:02:14;-127.1;;;-146.1;100.0
45864;BME280;31579;52.354;16.974;2023-02-11T05:03:17;-126.4;;;-146.1;100.0
45864;BME280;31579;52.354;16.974;2023-02-11T05:04:21;-138.7;;;-146.1;100.0
45864;BME280;31579;52.354;16.974;2023-02-11T05:05:23;-126.0;;;-146.1;100.0
45864;BME280;31579;52.354;16.974;2023-02-11T05:06:27;-129.0;;;-146.1;100.0
45864;BME280;31579;52.354;16.974;2023-02-11T05:07:29;-128.1;;;-146.1;100.0
45864;BME280;31579;52.354;16.974;2023-02-11T05:08:33;-125.7;;;-146.1;100.0
45864;BME280;31579;52.354;16.974;2023-02-11T05:09:35;-122.5;;;-146.1;100.0
45864;BME280;31579;52.354;16.974;2023-02-11T05:10:44;-149.1;;;-146.1;100.0
45864;BME280;31579;52.354;16.974;2023-02-11T05:11:46;-102.6;;;-146.1;100.0
45864;BME280;31579;52.354;16.974;2023-02-11T05:12:48;-130.2;;;-146.1;100.0
45864;BME280;31579;52.354;16.974;2023-02-11T05:13:52;-142.5;;;-146.1;100.0
45864;BME280;31579;52.354;16.974;2023-02-11T05:14:55;-147.2;;;-146.1;100.0
45864;BME280;31579;52.354;16.974;2023-02-11T05:15:58;-146.6;;;-146.1;100.0
45864;BME280;31579;52.354;16.974;2023-02-11T05:17:02;-151.8;;;-146.1;100.0
45864;BME280;31579;52.354;16.974;2023-02-11T05:18:05;-146.6;;;-146.1;100.0
45864;BME280;31579;52.354;16.974;2023-02-11T05:19:08;-146.5;;;-146.1;100.0
45864;BME280;31579;52.354;16.974;2023-02-11T05:20:11;-144.5;;;-146.1;100.0
45864;BME280;31579;52.354;16.974;2023-02-11T05:21:14;-141.9;;;-146.1;100.0
45864;BME280;31579;52.354;16.974;2023-02-11T05:22:16;-138.6;;;-146.1;100.0
45864;BME280;31579;52.354;16.974;2023-02-11T05:23:20;-134.5;;;-146.1;100.0
45864;BME280;31579;52.354;16.974;2023-02-11T05:24:23;-128.8;;;-146.1;100.0
45864;BME280;31579;52.354;16.974;2023-02-11T05:25:26;-124.2;;;-146.1;100.0
45864;BME280;31579;52.354;16.974;2023-02-11T05:26:29;-119.7;;;-146.1;100.0
45864;BME280;31579;52.354;16.974;2023-02-11T05:27:33;-139.5;;;-146.1;100.0
45864;BME280;31579;52.354;16.974;2023-02-11T05:28:36;-124.8;;;-146.1;100.0
45864;BME280;31579;52.354;16.974;2023-02-11T05:29:43;-149.4;;;-146.1;100.0
45864;BME280;31579;52.354;16.974;2023-02-11T05:30:46;-108.2;;;-146.1;100.0
45864;BME280;31579;52.354;16.974;2023-02-11T05:31:49;-135.9;;;-146.1;100.0
45864;BME280;31579;52.354;16.974;2023-02-11T05:32:52;-147.2;;;-146.1;100.0
45864;BME280;31579;52.354;16.974;2023-02-11T05:33:57;-152.2;;;-146.1;100.0
45864;BME280;31579;52.354;16.974;2023-02-11T05:35:01;-151.8;;;-146.1;100.0
45864;BME280;31579;52.354;16.974;2023-02-11T05:36:06;-150.1;;;-146.1;100.0
45864;BME280;31579;52.354;16.974;2023-02-11T05:37:08;-151.3;;;-146.1;100.0
45864;BME280;31579;52.354;16.974;2023-02-11T05:38:11;-150.6;;;-146.1;100.0
45864;BME280;31579;52.354;16.974;2023-02-11T05:39:14;-149.0;;;-146.1;100.0
45864;BME280;31579;52.354;16.974;2023-02-11T05:40:18;-146.4;;;-146.1;100.0
45864;BME280;31579;52.354;16.974;2023-02-11T05:41:22;-152.0;;;-146.1;100.0
45864;BME280;31579;52.354;16.974;2023-02-11T05:42:26;-152.1;;;-146.1;100.0
45864;BME280;31579;52.354;16.974;2023-02-11T05:43:28;-149.4;;;-146.1;100.0
45864;BME280;31579;52.354;16.974;2023-02-11T05:44:32;-149.4;;;-146.1;100.0
45864;BME280;31579;52.354;16.974;2023-02-11T05:45:36;-152.4;;;-146.1;100.0
45864;BME280;31579;52.354;16.974;2023-02-11T05:46:39;-149.8;;;-146.1;100.0
45864;BME280;31579;52.354;16.974;2023-02-11T05:47:42;-149.0;;;-146.1;100.0
45864;BME280;31579;52.354;16.974;2023-02-11T05:48:45;-146.1;;;-146.1;100.0
45864;BME280;31579;52.354;16.974;2023-02-11T05:49:49;-152.0;;;-146.1;100.0
45864;BME280;31579;52.354;16.974;2023-02-11T05:50:53;-151.9;;;-146.1;100.0
45864;BME280;31579;52.354;16.974;2023-02-11T05:51:57;-148.7;;;-146.1;100.0
45864;BME280;31579;52.354;16.974;2023-02-11T05:53:01;-152.4;;;-146.1;100.0
45864;BME280;31579;52.354;16.974;2023-02-11T05:54:05;-149.6;;;-146.1;100.0
45864;BME280;31579;52.354;16.974;2023-02-11T05:55:08;-149.1;;;-146.1;100.0
45864;BME280;31579;52.354;16.974;2023-02-11T05:56:12;-152.4;;;-146.1;100.0
45864;BME280;31579;52.354;16.974;2023-02-11T05:57:16;-149.5;;;-146.1;100.0
45864;BME280;31579;52.354;16.974;2023-02-11T05:58:20;-152.4;;;-146.1;100.0
45864;BME280;31579;52.354;16.974;2023-02-11T05:59:23;-150.1;;;-146.1;100.0
45864;BME280;31579;52.354;16.974;2023-02-11T06:00:27;-152.5;;;-146.1;100.0
45864;BME280;31579;52.354;16.974;2023-02-11T06:01:30;-150.8;;;-146.1;100.0
45864;BME280;31579;52.354;16.974;2023-02-11T06:02:34;-152.6;;;-146.1;100.0
45864;BME280;31579;52.354;16.974;2023-02-11T06:03:37;-151.5;;;-146.1;100.0
45864;BME280;31579;52.354;16.974;2023-02-11T06:04:41;-152.6;;;-146.1;100.0
45864;BME280;31579;52.354;16.974;2023-02-11T06:05:45;-152.0;;;-146.1;100.0
45864;BME280;31579;52.354;16.974;2023-02-11T06:06:48;-151.6;;;-146.1;100.0
45864;BME280;31579;52.354;16.974;2023-02-11T06:07:51;-150.5;;;-146.1;100.0
45864;BME280;31579;52.354;16.974;2023-02-11T06:08:54;-148.4;;;-146.1;100.0
45864;BME280;31579;52.354;16.974;2023-02-11T06:09:57;-145.8;;;-146.1;100.0
45864;BME280;31579;52.354;16.974;2023-02-11T06:11:01;-151.9;;;-146.1;100.0
45864;BME280;31579;52.354;16.974;2023-02-11T06:12:04;-147.4;;;-146.1;100.0
45864;BME280;31579;52.354;16.974;2023-02-11T06:13:07;-143.7;;;-146.1;100.0
45864;BME280;31579;52.354;16.974;2023-02-11T06:14:10;-140.0;;;-146.1;100.0
45864;BME280;31579;52.354;16.974;2023-02-11T06:15:13;-134.8;;;-146.1;100.0
45864;BME280;31579;52.354;16.974;2023-02-11T06:16:16;-129.8;;;-146.1;100.0
45864;BME280;31579;52.354;16.974;2023-02-11T06:17:20;-145.4;;;-146.1;100.0
45864;BME280;31579;52.354;16.974;2023-02-11T06:18:24;-146.6;;;-146.1;100.0
45864;BME280;31579;52.354;16.974;2023-02-11T06:19:27;-137.8;;;-146.1;100.0
45864;BME280;31579;52.354;16.974;2023-02-11T06:20:39;-128.9;;;-146.1;100.0
45864;BME280;31579;52.354;16.974;2023-02-11T06:21:42;-127.3;;;-146.1;100.0
45864;BME280;31579;52.354;16.974;2023-02-11T06:22:45;-149.3;;;-146.1;100.0
45864;BME280;31579;52.354;16.974;2023-02-11T06:23:49;-152.6;;;-146.1;100.0
45864;BME280;31579;52.354;16.974;2023-02-11T06:24:53;-152.5;;;-146.1;100.0
45864;BME280;31579;52.354;16.974;2023-02-11T06:26:00;-152.7;;;-146.1;100.0
45864;BME280;31579;52.354;16.974;2023-02-11T06:27:00;-152.6;;;-146.1;100.0
45864;BME280;31579;52.354;16.974;2023-02-11T06:28:03;-152.5;;;-146.1;100.0
45864;BME280;31579;52.354;16.974;2023-02-11T06:29:07;-152.6;;;-146.1;100.0
45864;BME280;31579;52.354;16.974;2023-02-11T06:30:10;-152.5;;;-146.1;100.0